createdAt,value
2018-01-16T00:02:19.233Z,38.27
2018-01-16T00:04:45.333Z,28.13
2018-01-16T00:07:11.411Z,21.40
2018-01-16T00:09:37.626Z,19.17
2018-01-16T00:12:03.702Z,21.70
2018-01-16T00:14:29.870Z,20.60
2018-01-16T00:16:56.035Z,23.50
2018-01-16T00:19:22.242Z,23.43
2018-01-16T00:21:48.326Z,21.87
2018-01-16T00:24:14.426Z,22.03
2018-01-16T00:26:40.594Z,21.60
2018-01-16T00:29:06.761Z,27.27
2018-01-16T00:31:32.982Z,28.63
2018-01-16T00:33:59.173Z,25.80
2018-01-16T00:36:25.310Z,28.80
2018-01-16T00:38:51.482Z,29.27
2018-01-16T00:41:17.697Z,31.87
2018-01-16T00:43:43.793Z,27.57
2018-01-16T00:46:10.006Z,23.03
2018-01-16T00:48:36.082Z,18.73
2018-01-16T00:51:02.180Z,18.57
2018-01-16T00:53:28.419Z,25.13
2018-01-16T00:55:54.529Z,27.47
2018-01-16T00:58:20.671Z,17.50
2018-01-16T01:00:46.889Z,16.43
2018-01-16T01:03:13.074Z,14.60
2018-01-16T01:05:39.317Z,20.23
2018-01-16T01:08:05.497Z,17.77
2018-01-16T01:10:31.750Z,18.20
2018-01-16T01:12:57.845Z,18.60
2018-01-16T01:15:23.985Z,20.90
2018-01-16T01:17:50.099Z,23.30
2018-01-16T01:20:16.325Z,24.87
2018-01-16T01:22:42.573Z,32.10
2018-01-16T01:25:08.726Z,32.27
2018-01-16T01:27:34.971Z,28.03
2018-01-16T01:30:01.070Z,25.60
2018-01-16T01:32:27.302Z,37.57
2018-01-16T01:34:53.557Z,47.23
2018-01-16T01:37:19.762Z,51.67
2018-01-16T01:39:45.974Z,51.53
2018-01-16T01:42:12.122Z,52.17
2018-01-16T01:44:38.370Z,46.83
2018-01-16T01:47:04.646Z,58.07
2018-01-16T01:49:30.937Z,42.37
2018-01-16T01:51:57.090Z,43.80
2018-01-16T01:54:23.267Z,47.47
2018-01-16T01:56:49.446Z,53.23
2018-01-16T01:59:15.641Z,44.27
2018-01-16T02:01:41.806Z,34.63
2018-01-16T02:04:07.952Z,32.43
2018-01-16T02:06:34.218Z,37.27
2018-01-16T02:09:00.389Z,29.87
2018-01-16T02:11:26.597Z,34.97
2018-01-16T02:13:52.829Z,30.70
2018-01-16T02:16:18.881Z,30.30
2018-01-16T02:18:45.030Z,35.97
2018-01-16T02:21:11.098Z,23.43
2018-01-16T02:23:37.354Z,28.77
2018-01-16T02:26:03.571Z,31.67
2018-01-16T02:28:29.702Z,22.40
2018-01-16T02:30:55.806Z,26.87
2018-01-16T02:33:21.989Z,22.50
2018-01-16T02:35:48.198Z,21.93
2018-01-16T02:38:14.342Z,19.37
2018-01-16T02:40:40.621Z,19.23
2018-01-16T02:43:06.802Z,19.00
2018-01-16T02:45:33.081Z,23.03
2018-01-16T02:47:59.226Z,17.20
2018-01-16T02:50:25.498Z,15.20
2018-01-16T02:52:51.615Z,15.23
2018-01-16T02:55:17.766Z,15.20
2018-01-16T02:57:43.961Z,15.50
2018-01-16T03:00:10.145Z,18.73
2018-01-16T03:02:36.335Z,15.87
2018-01-16T03:05:02.465Z,16.13
2018-01-16T03:07:28.606Z,14.23
2018-01-16T03:09:55.069Z,15.27
2018-01-16T03:12:21.237Z,17.93
2018-01-16T03:14:47.444Z,16.87
2018-01-16T03:17:13.681Z,24.57
2018-01-16T03:19:39.789Z,19.23
2018-01-16T03:22:06.009Z,16.00
2018-01-16T03:24:32.265Z,15.03
2018-01-16T03:26:58.529Z,15.87
2018-01-16T03:29:24.626Z,17.23
2018-01-16T03:31:50.874Z,17.63
2018-01-16T03:34:16.941Z,15.00
2018-01-16T03:36:43.134Z,16.43
2018-01-16T03:39:09.265Z,16.60
2018-01-16T03:41:35.526Z,20.53
2018-01-16T03:44:01.590Z,18.23
2018-01-16T03:46:27.717Z,21.13
2018-01-16T03:48:53.978Z,18.70
2018-01-16T03:51:20.133Z,22.57
2018-01-16T03:53:46.302Z,18.90
2018-01-16T03:56:12.517Z,18.33
2018-01-16T03:58:38.611Z,28.37
2018-01-16T04:01:04.806Z,20.73
2018-01-16T04:03:31.057Z,16.63
2018-01-16T04:05:57.126Z,19.80
2018-01-16T04:08:23.297Z,19.67
2018-01-16T04:10:49.582Z,36.47
2018-01-16T04:13:15.790Z,43.93
2018-01-16T04:15:42.310Z,41.83
2018-01-16T04:18:08.518Z,32.77
2018-01-16T04:20:34.662Z,32.73
2018-01-16T04:23:00.771Z,36.20
2018-01-16T04:25:27.035Z,29.33
2018-01-16T04:27:53.141Z,28.40
2018-01-16T04:30:19.394Z,34.63
2018-01-16T04:32:45.533Z,42.90
2018-01-16T04:35:11.641Z,22.97
2018-01-16T04:37:37.776Z,19.47
2018-01-16T04:40:03.843Z,16.43
2018-01-16T04:42:30.030Z,15.63
2018-01-16T04:44:56.210Z,15.60
2018-01-16T04:47:22.474Z,17.20
2018-01-16T04:49:48.594Z,19.07
2018-01-16T04:52:14.865Z,16.50
2018-01-16T04:54:41.086Z,16.37
2018-01-16T04:57:07.657Z,15.80
2018-01-16T04:59:33.918Z,16.30
2018-01-16T05:02:00.161Z,30.07
2018-01-16T05:04:26.269Z,26.90
2018-01-16T05:06:52.491Z,42.47
2018-01-16T05:09:18.705Z,33.97
2018-01-16T05:11:44.944Z,24.53
2018-01-16T05:14:11.163Z,26.10
2018-01-16T05:16:37.273Z,24.63
2018-01-16T05:19:03.458Z,22.90
2018-01-16T05:21:29.671Z,21.90
2018-01-16T05:23:55.865Z,22.50
2018-01-16T05:26:22.036Z,21.50
2018-01-16T05:28:48.167Z,23.57
2018-01-16T05:31:14.385Z,21.40
2018-01-16T05:33:40.589Z,19.87
2018-01-16T05:36:06.725Z,19.80
2018-01-16T05:38:32.854Z,19.03
2018-01-16T05:40:58.885Z,19.33
2018-01-16T05:43:25.105Z,20.37
2018-01-16T05:45:51.391Z,20.13
2018-01-16T05:48:17.763Z,20.63
2018-01-16T05:50:43.879Z,22.73
2018-01-16T05:53:10.138Z,21.57
2018-01-16T05:55:36.318Z,19.80
2018-01-16T05:58:02.489Z,19.80
2018-01-16T06:00:28.658Z,19.77
2018-01-16T06:02:54.906Z,19.13
2018-01-16T06:05:21.046Z,20.23
2018-01-16T06:07:47.212Z,19.40
2018-01-16T06:10:13.394Z,19.30
2018-01-16T06:12:39.542Z,19.80
2018-01-16T06:15:05.610Z,18.50
2018-01-16T06:17:31.780Z,17.63
2018-01-16T06:19:57.796Z,19.33
2018-01-16T06:22:24.038Z,19.83
2018-01-16T06:24:50.230Z,21.43
2018-01-16T06:27:16.411Z,18.87
2018-01-16T06:29:42.561Z,21.70
2018-01-16T06:32:08.769Z,23.80
2018-01-16T06:34:34.882Z,21.57
2018-01-16T06:37:01.097Z,21.93
2018-01-16T06:39:27.210Z,20.50
2018-01-16T06:41:53.469Z,20.97
2018-01-16T06:44:19.629Z,20.27
2018-01-16T06:46:45.847Z,22.83
2018-01-16T06:49:12.108Z,18.27
2018-01-16T06:51:38.282Z,18.40
2018-01-16T06:54:04.414Z,21.83
2018-01-16T06:56:30.695Z,19.77
2018-01-16T06:58:56.939Z,20.70
2018-01-16T07:01:23.055Z,20.47
2018-01-16T07:03:49.246Z,23.30
2018-01-16T07:06:15.456Z,22.93
2018-01-16T07:08:41.532Z,19.70
2018-01-16T07:11:07.678Z,19.30
2018-01-16T07:13:33.914Z,20.53
2018-01-16T07:16:00.136Z,25.67
2018-01-16T07:18:26.386Z,28.17
2018-01-16T07:20:52.642Z,24.73
2018-01-16T07:23:18.812Z,29.70
2018-01-16T07:25:44.998Z,24.20
2018-01-16T07:28:11.088Z,20.13
2018-01-16T07:30:37.221Z,18.90
2018-01-16T07:33:03.425Z,21.30
2018-01-16T07:35:29.499Z,56.60
2018-01-16T07:37:55.663Z,20.50
2018-01-16T07:40:21.818Z,21.10
2018-01-16T07:42:48.314Z,19.77
2018-01-16T07:45:14.502Z,20.67
2018-01-16T07:47:40.710Z,20.13
2018-01-16T07:50:06.802Z,20.13
2018-01-16T07:52:32.870Z,20.33
2018-01-16T07:54:59.006Z,19.43
2018-01-16T07:57:25.230Z,21.93
2018-01-16T07:59:51.549Z,22.63
2018-01-16T08:02:17.705Z,22.43
2018-01-16T08:04:43.973Z,22.10
2018-01-16T08:07:10.146Z,19.37
2018-01-16T08:09:36.406Z,24.23
2018-01-16T08:12:02.660Z,20.97
2018-01-16T08:14:28.733Z,24.30
2018-01-16T08:16:54.895Z,21.17
2018-01-16T08:19:21.286Z,21.13
2018-01-16T08:21:47.351Z,20.93
2018-01-16T08:24:13.609Z,19.43
2018-01-16T08:26:39.921Z,19.73
2018-01-16T08:29:06.069Z,24.83
2018-01-16T08:31:32.306Z,20.60
2018-01-16T08:33:58.414Z,20.13
2018-01-16T08:36:24.605Z,20.77
2018-01-16T08:38:50.734Z,18.97
2018-01-16T08:41:33.826Z,19.10
2018-01-16T08:44:00.094Z,19.30
2018-01-16T08:46:26.149Z,21.40
2018-01-16T08:48:52.350Z,19.90
2018-01-16T08:56:48.905Z,29.27
2018-01-16T08:59:15.018Z,19.97
2018-01-16T09:01:41.210Z,24.13
2018-01-16T09:04:07.410Z,20.57
2018-01-16T09:06:33.642Z,21.57
2018-01-16T09:08:59.920Z,21.63
2018-01-16T09:36:25.958Z,16.30
2018-01-16T09:38:52.153Z,17.17
2018-01-16T09:57:50.464Z,22.83
2018-01-16T10:22:35.632Z,25.93
2018-01-16T10:25:01.896Z,49.23
2018-01-16T10:27:28.083Z,23.87
2018-01-16T10:38:14.209Z,19.67
2018-01-16T10:40:57.149Z,18.70
2018-01-16T10:43:23.250Z,19.73
2018-01-16T10:45:49.494Z,19.93
2018-01-16T10:48:15.599Z,20.23
2018-01-16T11:09:59.850Z,20.67
2018-01-16T11:12:25.954Z,21.53
2018-01-16T11:14:52.154Z,20.13
2018-01-16T11:17:18.301Z,20.30
2018-01-16T11:30:50.174Z,20.13
2018-01-16T11:33:16.397Z,20.30
2018-01-16T11:35:42.561Z,33.13
2018-01-16T11:38:08.736Z,34.87
2018-01-16T11:46:19.522Z,21.33
2018-01-16T11:54:28.515Z,20.07
2018-01-16T11:56:54.714Z,19.90
2018-01-16T11:59:33.553Z,20.27
2018-01-16T12:01:59.738Z,20.20
2018-01-16T12:04:25.935Z,20.23
2018-01-16T12:06:52.182Z,21.97
2018-01-16T12:14:49.011Z,23.27
2018-01-16T12:17:15.126Z,29.00
2018-01-16T12:19:41.239Z,21.60
2018-01-16T12:22:07.482Z,19.80
2018-01-16T12:24:33.578Z,23.87
2018-01-16T12:26:59.801Z,28.17
2018-01-16T12:32:18.245Z,20.40
2018-01-16T12:34:44.365Z,19.83
2018-01-16T12:37:10.514Z,20.97
2018-01-16T12:39:49.266Z,23.20
2018-01-16T12:45:00.974Z,22.13
2018-01-16T12:47:27.813Z,20.47
2018-01-16T13:25:45.942Z,29.23
2018-01-16T13:28:12.194Z,29.47
2018-01-16T13:30:41.774Z,24.07
2018-01-16T13:33:08.049Z,27.77
2018-01-16T13:35:34.294Z,26.70
2018-01-16T13:38:00.441Z,30.47
2018-01-16T13:43:12.738Z,36.97
2018-01-16T13:45:38.933Z,38.13
2018-01-16T13:48:05.134Z,25.70
2018-01-16T14:23:44.531Z,55.80
2018-01-16T14:26:10.702Z,35.53
2018-01-16T14:31:22.481Z,23.77
2018-01-16T14:33:48.540Z,22.30
2018-01-16T14:36:14.798Z,25.60
2018-01-16T14:38:40.903Z,25.00
2018-01-16T14:41:07.021Z,24.80
2018-01-16T14:43:33.197Z,27.27
2018-01-16T14:45:59.319Z,41.33
2018-01-16T14:48:25.582Z,43.63
2018-01-16T14:50:51.731Z,44.23
2018-01-16T14:53:17.918Z,42.53
2018-01-16T14:55:44.047Z,43.73
2018-01-16T14:58:10.123Z,49.23
2018-01-16T15:00:36.375Z,48.37
2018-01-16T15:03:02.851Z,56.40
2018-01-16T15:05:29.601Z,37.40
2018-01-16T15:07:55.746Z,34.30
2018-01-16T15:10:21.826Z,34.30
2018-01-16T15:12:48.078Z,40.90
2018-01-16T15:15:14.207Z,29.43
2018-01-16T15:17:40.423Z,27.93
2018-01-16T15:20:06.574Z,35.07
2018-01-16T15:22:32.673Z,30.57
2018-01-16T15:24:58.890Z,30.40
2018-01-16T15:27:25.111Z,26.83
2018-01-16T15:29:52.258Z,25.23
2018-01-16T15:32:18.519Z,26.40
2018-01-16T15:34:44.750Z,33.63
2018-01-16T15:37:10.990Z,34.37
2018-01-16T15:39:37.043Z,59.80
2018-01-16T15:42:03.281Z,30.90
2018-01-16T15:44:29.485Z,26.27
2018-01-16T15:46:55.635Z,28.50
2018-01-16T15:49:21.834Z,28.10
2018-01-16T15:51:48.113Z,68.23
2018-01-16T15:54:14.354Z,39.50
2018-01-16T15:56:40.569Z,38.50
2018-01-16T15:59:07.794Z,39.00
2018-01-16T16:01:34.024Z,36.23
2018-01-16T16:04:00.201Z,72.27
2018-01-16T16:06:26.919Z,30.10
2018-01-16T16:08:53.014Z,77.10
2018-01-16T16:11:19.107Z,35.73
2018-01-16T16:13:45.380Z,30.03
2018-01-16T16:16:11.457Z,49.83
2018-01-16T16:18:37.660Z,39.23
2018-01-16T16:21:03.825Z,36.87
2018-01-16T16:23:30.030Z,30.53
2018-01-16T16:25:56.256Z,30.20
2018-01-16T16:28:23.250Z,40.40
2018-01-16T16:30:49.413Z,32.57
2018-01-16T16:33:15.662Z,35.50
2018-01-16T16:35:41.897Z,51.93
2018-01-16T16:38:08.106Z,34.87
2018-01-16T16:40:34.218Z,34.33
2018-01-16T16:43:00.478Z,35.90
2018-01-16T16:45:26.719Z,37.27
2018-01-16T16:47:52.835Z,60.40
2018-01-16T16:50:18.985Z,57.43
2018-01-16T16:52:45.287Z,62.33
2018-01-16T16:55:11.434Z,70.60
2018-01-16T16:57:37.630Z,73.77
2018-01-16T17:00:03.734Z,74.73
2018-01-16T17:02:29.858Z,75.37
2018-01-16T17:04:56.006Z,73.03
2018-01-16T17:07:22.074Z,74.73
2018-01-16T17:09:48.293Z,112.23
2018-01-16T17:12:14.478Z,85.57
2018-01-16T17:14:40.697Z,113.70
2018-01-16T17:17:06.795Z,84.23
2018-01-16T17:19:33.083Z,58.47
2018-01-16T17:21:59.334Z,50.80
2018-01-16T17:24:25.514Z,50.20
2018-01-16T17:26:51.735Z,48.47
2018-01-16T17:29:17.854Z,42.13
2018-01-16T17:31:44.015Z,74.77
2018-01-16T17:34:10.206Z,52.33
2018-01-16T17:36:36.375Z,52.63
2018-01-16T17:39:03.607Z,107.97
2018-01-16T17:41:29.856Z,52.53
2018-01-16T17:43:56.047Z,56.03
2018-01-16T17:46:22.314Z,70.17
2018-01-16T17:48:48.458Z,65.57
2018-01-16T17:51:14.652Z,44.47
2018-01-16T17:53:40.810Z,48.23
2018-01-16T17:56:07.022Z,50.93
2018-01-16T17:58:33.281Z,48.07
2018-01-16T18:00:59.552Z,47.50
2018-01-16T18:03:25.638Z,45.60
2018-01-16T18:05:51.738Z,55.20
2018-01-16T18:08:17.973Z,53.17
2018-01-16T18:10:43.999Z,52.40
2018-01-16T18:13:10.186Z,51.30
2018-01-16T18:15:36.414Z,55.60
2018-01-16T18:18:02.654Z,54.73
2018-01-16T18:20:28.759Z,60.13
2018-01-16T18:22:55.030Z,54.80
2018-01-16T18:25:21.178Z,53.53
2018-01-16T18:27:47.407Z,52.07
2018-01-16T18:30:13.603Z,56.83
2018-01-16T18:32:39.794Z,66.53
2018-01-16T18:35:05.942Z,68.43
2018-01-16T18:37:32.089Z,60.87
2018-01-16T18:39:58.344Z,72.63
2018-01-16T18:42:24.538Z,78.30
2018-01-16T18:44:50.660Z,71.30
2018-01-16T18:47:16.918Z,69.53
2018-01-16T18:49:43.138Z,67.93
2018-01-16T18:52:09.294Z,104.43
2018-01-16T18:54:35.400Z,78.83
2018-01-16T18:57:04.491Z,61.10
2018-01-16T18:59:31.627Z,54.57
2018-01-16T19:01:57.735Z,57.67
2018-01-16T19:04:23.990Z,59.90
2018-01-16T19:06:50.240Z,57.30
2018-01-16T19:09:16.524Z,54.67
2018-01-16T19:11:42.717Z,55.53
2018-01-16T19:14:09.221Z,55.07
2018-01-16T19:16:35.334Z,67.70
2018-01-16T19:19:02.087Z,42.97
2018-01-16T19:21:28.258Z,43.07
2018-01-16T19:23:54.371Z,50.53
2018-01-16T19:26:20.588Z,52.60
2018-01-16T19:31:45.697Z,49.87
2018-01-16T19:34:11.968Z,52.67
2018-01-16T19:36:38.098Z,56.23
2018-01-16T19:41:59.758Z,52.20
2018-01-16T19:44:25.914Z,49.97
2018-01-16T19:46:52.178Z,52.07
2018-01-16T20:11:20.626Z,52.13
2018-01-16T20:13:46.727Z,58.13
2018-01-16T20:16:12.915Z,59.70
2018-01-16T20:24:21.954Z,52.97
2018-01-16T20:26:48.177Z,51.80
2018-01-16T20:29:28.175Z,43.93
2018-01-16T20:31:54.346Z,43.57
2018-01-16T20:34:21.241Z,42.77
2018-01-16T20:36:47.405Z,44.80
2018-01-16T20:39:18.451Z,47.07
2018-01-16T20:41:44.614Z,45.07
2018-01-16T20:44:10.775Z,41.43
2018-01-16T20:46:36.878Z,37.47
2018-01-16T20:49:08.879Z,40.67
2018-01-16T20:51:34.938Z,41.97
2018-01-16T20:54:01.111Z,36.50
2018-01-16T20:56:27.217Z,39.07
2018-01-16T20:59:06.865Z,41.57
2018-01-16T21:01:33.118Z,43.87
2018-01-16T21:03:59.255Z,39.30
2018-01-16T21:06:25.363Z,41.00
2018-01-16T21:08:52.617Z,40.67
2018-01-16T21:11:19.123Z,41.90
2018-01-16T21:13:45.344Z,44.20
2018-01-16T21:16:11.495Z,52.37
2018-01-16T21:18:46.034Z,56.00
2018-01-16T21:21:12.486Z,38.27
2018-01-16T21:23:38.666Z,40.67
2018-01-16T21:26:04.882Z,38.87
2018-01-16T21:36:47.882Z,37.10
2018-01-16T21:39:15.094Z,39.23
2018-01-16T21:41:41.249Z,36.40
2018-01-16T21:44:07.358Z,38.50
2018-01-16T21:46:33.533Z,37.00
2018-01-16T21:49:04.685Z,40.20
2018-01-16T21:51:30.806Z,39.63
2018-01-16T21:53:56.970Z,39.03
2018-01-16T21:56:23.134Z,38.93
2018-01-16T21:58:56.489Z,37.33
2018-01-16T22:01:22.594Z,38.17
2018-01-16T22:03:48.705Z,40.77
2018-01-16T22:06:14.938Z,41.43
2018-01-16T22:11:32.255Z,40.37
2018-01-16T22:13:58.445Z,37.33
2018-01-16T22:16:24.546Z,35.13
2018-01-16T22:18:50.775Z,33.87
2018-01-16T22:21:16.877Z,37.20
2018-01-16T22:23:43.287Z,35.93
2018-01-16T22:26:09.422Z,41.57
2018-01-16T22:28:36.703Z,45.47
2018-01-16T22:31:02.827Z,46.83
2018-01-16T22:33:28.974Z,45.37
2018-01-16T22:35:55.039Z,44.47
2018-01-16T22:38:21.325Z,36.40
2018-01-16T22:40:47.474Z,31.77
2018-01-16T22:43:13.714Z,32.50
2018-01-16T22:45:39.798Z,34.43
2018-01-16T22:48:11.169Z,35.63
2018-01-16T22:50:37.271Z,34.37
2018-01-16T22:53:03.486Z,31.70
2018-01-16T22:55:29.668Z,39.07
2018-01-16T22:58:06.008Z,36.80
2018-01-16T23:00:32.141Z,36.87
2018-01-16T23:02:58.222Z,35.90
2018-01-16T23:05:24.486Z,36.73
2018-01-16T23:08:02.006Z,29.87
2018-01-16T23:10:28.103Z,31.00
2018-01-16T23:12:54.270Z,31.13
2018-01-16T23:15:20.498Z,38.67
2018-01-16T23:17:46.590Z,36.77
2018-01-16T23:20:12.763Z,34.97
2018-01-16T23:22:38.930Z,32.23
2018-01-16T23:25:05.107Z,28.03
2018-01-16T23:30:19.670Z,29.80
2018-01-16T23:32:45.914Z,28.93
2018-01-16T23:35:12.231Z,38.90
2018-01-16T23:37:42.154Z,33.47
2018-01-16T23:40:08.394Z,33.43
2018-01-16T23:42:34.478Z,32.10
2018-01-16T23:45:00.606Z,29.77
2018-01-16T23:50:15.499Z,31.93
2018-01-16T23:52:41.642Z,36.50
2018-01-16T23:55:07.886Z,30.67
